createdAt,value
2023-02-21T00:00:26.087Z,32.07
2023-02-21T00:03:06.095Z,34.53
2023-02-21T00:05:46.371Z,34.17
2023-02-21T00:08:26.491Z,33.00
2023-02-21T00:11:06.851Z,33.73
2023-02-21T00:13:46.826Z,30.93
2023-02-21T00:16:27.036Z,32.93
2023-02-21T00:19:07.311Z,33.73
2023-02-21T00:21:49.128Z,33.17
2023-02-21T00:24:33.797Z,33.23
2023-02-21T00:27:14.105Z,38.15
2023-02-21T00:29:54.375Z,38.63
2023-02-21T00:32:34.828Z,34.77
2023-02-21T00:35:15.123Z,34.53
2023-02-21T00:37:55.456Z,36.73
2023-02-21T00:40:36.245Z,36.23
2023-02-21T00:43:16.205Z,36.60
2023-02-21T00:45:56.436Z,37.07
2023-02-21T00:48:41.886Z,36.70
2023-02-21T00:51:22.099Z,36.37
2023-02-21T00:54:02.739Z,38.23
2023-02-21T00:56:42.830Z,36.67
2023-02-21T00:59:23.118Z,35.70
2023-02-21T01:02:03.310Z,36.07
2023-02-21T01:04:43.526Z,36.47
2023-02-21T01:07:24.357Z,38.93
2023-02-21T01:10:04.788Z,36.73
2023-02-21T01:12:44.935Z,38.10
2023-02-21T01:15:25.785Z,38.13
2023-02-21T01:18:06.090Z,39.17
2023-02-21T01:20:47.884Z,38.73
2023-02-21T01:23:28.060Z,37.67
2023-02-21T01:26:08.385Z,37.93
2023-02-21T01:28:48.657Z,37.33
2023-02-21T01:31:29.271Z,36.10
2023-02-21T01:34:09.513Z,37.43
2023-02-21T01:36:50.902Z,35.33
2023-02-21T01:39:32.223Z,36.77
2023-02-21T01:42:13.183Z,35.90
2023-02-21T01:45:00.952Z,35.17
2023-02-21T01:47:42.158Z,37.17
2023-02-21T01:50:41.078Z,36.53
2023-02-21T01:53:31.503Z,36.27
2023-02-21T01:56:15.805Z,37.10
2023-02-21T01:58:56.470Z,39.65
2023-02-21T02:01:55.160Z,37.93
2023-02-21T02:04:35.183Z,38.10
2023-02-21T02:07:16.149Z,37.67
2023-02-21T02:09:56.688Z,36.83
2023-02-21T02:13:05.311Z,37.90
2023-02-21T02:16:06.289Z,39.63
2023-02-21T02:18:34.222Z,40.13
2023-02-21T02:21:04.860Z,38.43
2023-02-21T02:23:56.860Z,36.63
2023-02-21T02:27:07.207Z,39.30
2023-02-21T02:30:16.975Z,37.47
2023-02-21T02:33:04.517Z,40.33
2023-02-21T02:35:36.657Z,37.20
2023-02-21T02:38:26.270Z,39.20
2023-02-21T02:41:30.120Z,36.53
2023-02-21T02:44:13.850Z,36.33
2023-02-21T02:46:41.221Z,37.53
2023-02-21T02:49:14.386Z,36.57
2023-02-21T02:51:36.823Z,34.73
2023-02-21T02:56:23.785Z,37.63
2023-02-21T02:59:07.794Z,34.60
2023-02-21T03:02:19.412Z,35.13
2023-02-21T03:05:06.768Z,33.17
2023-02-21T03:08:27.034Z,36.83
2023-02-21T03:11:12.042Z,34.93
2023-02-21T03:13:59.709Z,34.73
2023-02-21T03:16:44.005Z,34.00
2023-02-21T03:19:13.679Z,34.17
2023-02-21T03:21:48.805Z,35.27
2023-02-21T03:24:15.983Z,36.35
2023-02-21T03:26:44.408Z,34.47
2023-02-21T03:29:29.590Z,33.57
2023-02-21T03:32:20.988Z,36.90
2023-02-21T03:34:44.549Z,34.40
2023-02-21T03:37:20.208Z,34.67
2023-02-21T03:39:41.897Z,32.33
2023-02-21T03:42:04.341Z,32.43
2023-02-21T03:44:27.168Z,36.07
2023-02-21T03:46:49.244Z,32.63
2023-02-21T03:49:10.890Z,33.57
2023-02-21T03:51:32.533Z,33.53
2023-02-21T03:53:54.206Z,32.07
2023-02-21T03:56:20.882Z,32.40
2023-02-21T03:58:58.458Z,32.73
2023-02-21T04:01:20.283Z,36.37
2023-02-21T04:03:41.972Z,31.47
2023-02-21T04:06:04.132Z,34.97
2023-02-21T04:08:26.281Z,33.63
2023-02-21T04:10:52.426Z,33.50
2023-02-21T04:13:16.266Z,34.37
2023-02-21T04:15:41.012Z,33.37
2023-02-21T04:18:02.724Z,34.03
2023-02-21T04:20:24.869Z,35.30
2023-02-21T04:23:02.701Z,35.57
2023-02-21T04:25:25.482Z,36.70
2023-02-21T04:27:53.097Z,33.43
2023-02-21T04:30:14.866Z,34.87
2023-02-21T04:32:36.673Z,35.20
2023-02-21T04:35:03.821Z,35.33
2023-02-21T04:37:25.661Z,32.83
2023-02-21T04:39:47.820Z,35.83
2023-02-21T04:42:11.348Z,35.13
2023-02-21T04:44:33.832Z,37.33
2023-02-21T04:46:55.541Z,36.90
2023-02-21T04:49:17.238Z,36.83
2023-02-21T04:51:38.945Z,37.23
2023-02-21T04:54:00.645Z,34.70
2023-02-21T04:56:27.489Z,35.43
2023-02-21T04:58:50.001Z,35.67
2023-02-21T05:01:13.258Z,39.00
2023-02-21T05:03:35.067Z,35.50
2023-02-21T05:05:56.775Z,35.13
2023-02-21T05:08:18.412Z,35.20
2023-02-21T05:10:45.423Z,35.60
2023-02-21T05:13:07.501Z,33.93
2023-02-21T05:15:29.117Z,34.20
2023-02-21T05:17:50.744Z,35.17
2023-02-21T05:20:12.644Z,35.20
2023-02-21T05:22:34.372Z,35.30
2023-02-21T05:24:56.139Z,33.73
2023-02-21T05:27:21.255Z,33.97
2023-02-21T05:29:48.549Z,33.67
2023-02-21T05:32:10.329Z,35.47
2023-02-21T05:34:33.085Z,35.00
2023-02-21T05:36:54.776Z,35.63
2023-02-21T05:39:16.545Z,36.37
2023-02-21T05:41:38.175Z,37.27
2023-02-21T05:43:59.837Z,34.37
2023-02-21T05:46:34.986Z,36.50
2023-02-21T05:48:59.540Z,37.20
2023-02-21T05:53:42.905Z,41.43
2023-02-21T05:56:04.735Z,39.53
2023-02-21T05:58:26.392Z,39.93
2023-02-21T06:00:47.994Z,37.07
2023-02-21T06:03:09.787Z,41.50
2023-02-21T06:05:31.515Z,38.10
2023-02-21T06:07:53.220Z,37.83
2023-02-21T06:10:17.216Z,36.83
2023-02-21T06:12:39.101Z,37.80
2023-02-21T06:15:00.825Z,37.33
2023-02-21T06:17:22.689Z,39.47
2023-02-21T06:19:44.318Z,39.73
2023-02-21T06:22:05.878Z,38.77
2023-02-21T06:24:27.459Z,38.60
2023-02-21T06:26:49.176Z,36.90
2023-02-21T06:29:11.718Z,38.77
2023-02-21T06:31:33.507Z,39.17
2023-02-21T06:33:55.206Z,41.43
2023-02-21T06:36:23.250Z,38.47
2023-02-21T06:38:51.369Z,39.80
2023-02-21T06:41:16.920Z,38.03
2023-02-21T06:43:38.718Z,36.20
2023-02-21T06:46:00.411Z,37.40
2023-02-21T06:48:22.178Z,34.07
2023-02-21T06:50:44.701Z,36.33
2023-02-21T06:53:06.326Z,35.00
2023-02-21T06:55:27.920Z,36.00
2023-02-21T06:57:49.984Z,35.73
2023-02-21T07:00:12.296Z,34.23
2023-02-21T07:02:33.871Z,34.53
2023-02-21T07:04:55.696Z,33.90
2023-02-21T07:07:17.519Z,32.23
2023-02-21T07:09:39.343Z,33.70
2023-02-21T07:12:00.974Z,31.80
2023-02-21T07:14:22.589Z,33.63
2023-02-21T07:16:44.283Z,30.93
2023-02-21T07:19:05.938Z,29.30
2023-02-21T07:21:27.748Z,31.30
2023-02-21T07:23:50.240Z,30.40
2023-02-21T07:26:12.654Z,28.97
2023-02-21T07:28:34.235Z,27.93
2023-02-21T07:30:56.004Z,29.93
2023-02-21T07:33:17.668Z,28.00
2023-02-21T07:35:39.345Z,30.10
2023-02-21T07:38:01.057Z,26.37
2023-02-21T07:40:22.715Z,24.47
2023-02-21T07:42:44.668Z,25.37
2023-02-21T07:45:06.681Z,25.33
2023-02-21T07:47:28.611Z,25.00
2023-02-21T07:49:50.408Z,24.50
2023-02-21T07:52:12.061Z,23.17
2023-02-21T07:54:33.977Z,24.00
2023-02-21T07:56:55.645Z,22.03
2023-02-21T07:59:17.356Z,23.10
2023-02-21T08:01:39.080Z,21.47
2023-02-21T08:04:01.667Z,19.03
2023-02-21T08:06:23.794Z,19.90
2023-02-21T08:08:45.838Z,17.83
2023-02-21T08:11:07.597Z,18.50
2023-02-21T08:13:29.505Z,18.83
2023-02-21T08:15:51.239Z,19.00
2023-02-21T08:18:24.134Z,17.23
2023-02-21T08:20:46.402Z,16.63
2023-02-21T08:23:08.048Z,17.60
2023-02-21T08:25:29.644Z,17.47
2023-02-21T08:27:55.091Z,14.97
2023-02-21T08:30:20.553Z,16.83
2023-02-21T08:32:43.851Z,15.40
2023-02-21T08:35:06.395Z,14.27
2023-02-21T08:37:32.926Z,15.77
2023-02-21T08:39:54.563Z,15.23
2023-02-21T08:42:16.971Z,14.47
2023-02-21T08:44:38.588Z,14.80
2023-02-21T08:47:00.312Z,14.40
2023-02-21T08:49:23.123Z,14.40
2023-02-21T08:51:44.894Z,14.40
2023-02-21T08:54:07.807Z,14.20
2023-02-21T08:56:30.775Z,14.67
2023-02-21T08:58:56.412Z,14.33
2023-02-21T09:01:18.214Z,13.53
2023-02-21T09:03:40.233Z,14.13
2023-02-21T09:06:03.708Z,14.77
2023-02-21T09:08:26.747Z,15.83
2023-02-21T09:10:49.356Z,14.07
2023-02-21T09:13:10.972Z,16.17
2023-02-21T09:15:32.656Z,15.40
2023-02-21T09:17:54.727Z,15.33
2023-02-21T09:20:24.124Z,16.70
2023-02-21T09:22:46.199Z,15.60
2023-02-21T09:25:12.903Z,15.47
2023-02-21T09:27:37.507Z,14.83
2023-02-21T09:29:59.096Z,16.20
2023-02-21T09:32:20.662Z,14.40
2023-02-21T09:34:42.345Z,12.43
2023-02-21T09:37:07.288Z,13.07
2023-02-21T09:39:29.140Z,12.00
2023-02-21T09:41:53.540Z,13.13
2023-02-21T09:46:52.759Z,11.63
2023-02-21T09:49:26.322Z,12.33
2023-02-21T09:51:50.555Z,11.33
2023-02-21T09:54:28.348Z,11.25
2023-02-21T09:56:50.039Z,11.40
2023-02-21T09:59:13.345Z,12.90
2023-02-21T10:02:16.043Z,12.10
2023-02-21T10:05:22.159Z,12.70
2023-02-21T10:10:59.824Z,13.03
2023-02-21T10:13:46.085Z,12.55
2023-02-21T10:16:32.009Z,13.67
2023-02-21T10:19:15.405Z,11.97
2023-02-21T10:21:45.755Z,12.70
2023-02-21T10:24:24.246Z,13.20
2023-02-21T10:27:02.739Z,12.63
2023-02-21T10:29:35.634Z,12.40
2023-02-21T10:32:03.319Z,11.67
2023-02-21T10:34:29.771Z,12.77
2023-02-21T10:36:53.022Z,13.37
2023-02-21T10:39:24.894Z,13.20
2023-02-21T10:41:48.305Z,12.77
2023-02-21T10:44:24.439Z,13.27
2023-02-21T10:47:04.229Z,12.10
2023-02-21T10:49:38.364Z,12.47
2023-02-21T10:52:17.109Z,13.02
2023-02-21T10:54:39.914Z,12.20
2023-02-21T10:57:06.452Z,12.23
2023-02-21T10:59:33.323Z,12.53
2023-02-21T11:01:56.741Z,11.43
2023-02-21T11:04:21.306Z,12.53
2023-02-21T11:06:49.871Z,10.80
2023-02-21T11:09:40.951Z,11.07
2023-02-21T11:12:26.041Z,11.17
2023-02-21T11:14:50.762Z,12.35
2023-02-21T11:17:23.643Z,12.33
2023-02-21T11:20:00.723Z,11.20
2023-02-21T11:22:36.046Z,11.03
2023-02-21T11:25:06.527Z,12.03
2023-02-21T11:27:32.978Z,10.60
2023-02-21T11:29:56.020Z,10.30
2023-02-21T11:32:50.517Z,10.80
2023-02-21T11:35:28.103Z,10.90
2023-02-21T11:37:57.456Z,10.83
2023-02-21T11:40:29.173Z,11.23
2023-02-21T11:42:50.889Z,11.17
2023-02-21T11:45:30.574Z,11.07
2023-02-21T11:48:14.073Z,9.67
2023-02-21T11:50:49.189Z,11.30
2023-02-21T11:53:30.306Z,10.73
2023-02-21T11:56:57.468Z,9.63
2023-02-21T11:59:54.234Z,10.63
2023-02-21T12:02:51.404Z,10.47
2023-02-21T12:05:38.147Z,10.30
2023-02-21T12:08:35.205Z,11.03
2023-02-21T12:11:23.004Z,9.63
2023-02-21T12:14:16.065Z,10.37
2023-02-21T12:17:13.314Z,9.40
2023-02-21T12:20:06.380Z,10.03
2023-02-21T12:23:02.066Z,9.80
2023-02-21T12:26:15.684Z,9.10
2023-02-21T12:29:15.382Z,10.07
2023-02-21T12:31:55.441Z,11.63
2023-02-21T12:34:44.898Z,9.03
2023-02-21T12:37:52.938Z,10.17
2023-02-21T12:40:39.892Z,9.87
2023-02-21T12:43:43.840Z,9.37
2023-02-21T12:46:21.229Z,10.63
2023-02-21T12:49:18.317Z,11.83
2023-02-21T12:51:49.646Z,9.30
2023-02-21T12:54:22.503Z,10.37
2023-02-21T12:57:02.676Z,9.33
2023-02-21T12:59:37.029Z,9.03
2023-02-21T13:02:12.370Z,9.32
2023-02-21T13:04:52.646Z,9.53
2023-02-21T13:07:32.693Z,9.30
2023-02-21T13:10:35.828Z,9.83
2023-02-21T13:13:14.688Z,9.33
2023-02-21T13:15:40.084Z,9.20
2023-02-21T13:18:18.270Z,9.47
2023-02-21T13:20:53.029Z,9.07
2023-02-21T13:23:53.354Z,8.23
2023-02-21T13:26:37.508Z,9.67
2023-02-21T13:29:00.035Z,9.00
2023-02-21T13:31:27.326Z,9.60
2023-02-21T13:33:57.348Z,8.63
2023-02-21T13:36:43.001Z,10.40
2023-02-21T13:39:36.530Z,8.90
2023-02-21T13:42:10.157Z,9.00
2023-02-21T13:44:37.899Z,9.60
2023-02-21T13:47:22.485Z,8.80
2023-02-21T13:49:59.285Z,8.10
2023-02-21T13:52:22.446Z,8.13
2023-02-21T13:55:14.920Z,8.27
2023-02-21T13:58:00.170Z,8.37
2023-02-21T14:03:19.473Z,7.83
2023-02-21T14:05:44.076Z,8.43
2023-02-21T14:08:15.270Z,8.83
2023-02-21T14:10:55.006Z,8.70
2023-02-21T14:13:51.090Z,7.80
2023-02-21T14:16:14.527Z,7.60
2023-02-21T14:18:39.471Z,8.43
2023-02-21T14:23:39.915Z,8.50
2023-02-21T14:26:04.944Z,8.70
2023-02-21T14:29:08.765Z,8.00
2023-02-21T14:32:03.540Z,7.60
2023-02-21T14:34:39.374Z,7.63
2023-02-21T14:37:12.959Z,7.90
2023-02-21T14:39:46.159Z,7.68
2023-02-21T14:42:55.712Z,6.70
2023-02-21T14:46:07.403Z,6.77
2023-02-21T14:49:18.298Z,6.73
2023-02-21T14:52:21.930Z,6.73
2023-02-21T14:55:23.822Z,7.20
2023-02-21T14:58:14.818Z,7.73
2023-02-21T15:01:33.938Z,8.37
2023-02-21T15:04:15.280Z,7.17
2023-02-21T15:06:43.593Z,7.87
2023-02-21T15:09:18.808Z,6.90
2023-02-21T15:11:41.525Z,8.03
2023-02-21T15:14:24.781Z,8.40
2023-02-21T15:16:47.423Z,7.90
2023-02-21T15:19:31.580Z,7.67
2023-02-21T15:22:24.796Z,8.67
2023-02-21T15:25:08.638Z,8.33
2023-02-21T15:27:30.251Z,8.37
2023-02-21T15:30:23.647Z,8.20
2023-02-21T15:32:58.110Z,7.77
2023-02-21T15:35:27.405Z,7.93
2023-02-21T15:37:49.193Z,7.43
2023-02-21T15:40:20.986Z,8.57
2023-02-21T15:42:46.145Z,9.23
2023-02-21T15:45:22.509Z,8.80
2023-02-21T15:47:44.730Z,8.60
2023-02-21T15:50:26.381Z,9.03
2023-02-21T15:52:53.784Z,9.00
2023-02-21T15:55:30.148Z,8.33
2023-02-21T15:58:05.397Z,8.30
2023-02-21T16:00:30.650Z,8.80
2023-02-21T16:02:52.882Z,9.07
2023-02-21T16:05:43.902Z,8.63
2023-02-21T16:08:05.682Z,8.30
2023-02-21T16:10:27.428Z,8.83
2023-02-21T16:12:58.578Z,8.00
2023-02-21T16:15:32.039Z,8.17
2023-02-21T16:17:58.034Z,8.67
2023-02-21T16:20:34.386Z,8.40
2023-02-21T16:23:23.876Z,8.17
2023-02-21T16:26:09.902Z,8.73
2023-02-21T16:28:32.200Z,8.43
2023-02-21T16:30:58.188Z,8.93
2023-02-21T16:33:19.893Z,9.57
2023-02-21T16:35:42.858Z,9.13
2023-02-21T16:38:04.543Z,8.70
2023-02-21T16:40:33.620Z,8.60
2023-02-21T16:42:57.493Z,9.50
2023-02-21T16:45:19.776Z,9.02
2023-02-21T16:47:43.444Z,9.57
2023-02-21T16:50:05.473Z,9.13
2023-02-21T16:52:28.915Z,9.90
2023-02-21T16:54:50.705Z,10.30
2023-02-21T16:57:13.381Z,10.77
2023-02-21T16:59:36.110Z,11.00
2023-02-21T17:01:57.837Z,10.30
2023-02-21T17:04:24.091Z,10.97
2023-02-21T17:06:58.738Z,11.23
2023-02-21T17:09:24.423Z,12.13
2023-02-21T17:11:46.309Z,10.87
2023-02-21T17:14:07.894Z,10.63
2023-02-21T17:16:29.578Z,11.20
2023-02-21T17:18:51.215Z,11.37
2023-02-21T17:21:12.930Z,11.33
2023-02-21T17:23:34.579Z,11.43
2023-02-21T17:25:56.430Z,12.10
2023-02-21T17:28:18.095Z,10.93
2023-02-21T17:30:39.732Z,12.13
2023-02-21T17:33:01.513Z,12.93
2023-02-21T17:35:24.595Z,12.50
2023-02-21T17:37:47.548Z,11.87
2023-02-21T17:40:11.127Z,11.30
2023-02-21T17:42:32.855Z,12.68
2023-02-21T17:44:54.552Z,12.27
2023-02-21T17:47:19.870Z,11.70
2023-02-21T17:49:41.519Z,11.30
2023-02-21T17:52:03.198Z,12.93
2023-02-21T17:54:25.939Z,13.00
2023-02-21T17:56:47.736Z,12.10
2023-02-21T17:59:09.554Z,13.63
2023-02-21T18:01:31.842Z,13.83
2023-02-21T18:03:54.340Z,12.60
2023-02-21T18:06:17.359Z,13.27
2023-02-21T18:08:38.982Z,12.30
2023-02-21T18:11:00.656Z,12.70
2023-02-21T18:13:23.260Z,12.97
2023-02-21T18:15:44.865Z,12.67
2023-02-21T18:18:08.359Z,13.03
2023-02-21T18:20:30.096Z,12.68
2023-02-21T18:22:52.139Z,13.93
2023-02-21T18:25:17.870Z,13.53
2023-02-21T18:27:39.539Z,11.40
2023-02-21T18:30:01.227Z,13.00
2023-02-21T18:32:24.001Z,12.43
2023-02-21T18:34:45.716Z,12.70
2023-02-21T18:37:08.166Z,13.93
2023-02-21T18:39:32.282Z,13.43
2023-02-21T18:41:54.078Z,12.43
2023-02-21T18:44:15.971Z,13.30
2023-02-21T18:46:44.386Z,13.17
2023-02-21T18:49:06.217Z,13.43
2023-02-21T18:51:27.837Z,14.37
2023-02-21T18:53:50.515Z,13.10
2023-02-21T18:56:15.542Z,13.37
2023-02-21T18:58:38.756Z,13.57
2023-02-21T19:01:00.477Z,12.40
2023-02-21T19:03:22.209Z,13.03
2023-02-21T19:05:43.824Z,14.40
2023-02-21T19:08:05.638Z,12.43
2023-02-21T19:10:29.758Z,12.80
2023-02-21T19:12:51.577Z,13.10
2023-02-21T19:15:13.329Z,14.07
2023-02-21T19:17:35.131Z,14.53
2023-02-21T19:19:56.789Z,13.97
2023-02-21T19:22:18.394Z,13.03
2023-02-21T19:24:39.970Z,13.53
2023-02-21T19:27:02.292Z,13.67
2023-02-21T19:29:23.878Z,13.27
2023-02-21T19:31:46.122Z,14.33
2023-02-21T19:34:10.245Z,14.27
2023-02-21T19:36:31.931Z,13.40
2023-02-21T19:38:53.629Z,13.70
2023-02-21T19:41:17.914Z,13.93
2023-02-21T19:46:01.395Z,15.03
2023-02-21T19:48:23.101Z,13.87
2023-02-21T19:50:44.751Z,14.80
2023-02-21T19:53:06.368Z,14.67
2023-02-21T19:55:30.623Z,14.77
2023-02-21T19:57:52.328Z,15.18
2023-02-21T20:00:15.334Z,14.70
2023-02-21T20:02:37.020Z,14.90
2023-02-21T20:04:58.572Z,14.50
2023-02-21T20:07:20.740Z,15.13
2023-02-21T20:09:42.758Z,14.47
2023-02-21T20:12:04.705Z,16.77
2023-02-21T20:14:26.909Z,16.87
2023-02-21T20:16:48.604Z,16.30
2023-02-21T20:19:13.080Z,15.00
2023-02-21T20:21:35.009Z,15.18
2023-02-21T20:24:00.056Z,17.13
2023-02-21T20:26:23.314Z,14.90
2023-02-21T20:28:48.227Z,15.13
2023-02-21T20:31:12.811Z,15.70
2023-02-21T20:33:38.175Z,15.30
2023-02-21T20:35:59.808Z,15.27
2023-02-21T20:38:21.524Z,14.67
2023-02-21T20:40:43.175Z,15.27
2023-02-21T20:43:04.827Z,13.70
2023-02-21T20:45:26.491Z,15.47
2023-02-21T20:47:48.270Z,13.73
2023-02-21T20:50:10.285Z,15.17
2023-02-21T20:52:31.900Z,15.13
2023-02-21T20:54:54.825Z,14.67
2023-02-21T20:57:16.460Z,14.80
2023-02-21T20:59:39.635Z,14.87
2023-02-21T21:02:02.334Z,16.07
2023-02-21T21:04:32.198Z,15.67
2023-02-21T21:07:01.568Z,15.33
2023-02-21T21:09:28.881Z,14.30
2023-02-21T21:11:53.068Z,13.87
2023-02-21T21:14:17.560Z,13.38
2023-02-21T21:19:02.000Z,13.23
2023-02-21T21:21:32.353Z,12.67
2023-02-21T21:23:55.456Z,12.87
2023-02-21T21:26:17.101Z,12.13
2023-02-21T21:28:40.337Z,12.47
2023-02-21T21:31:04.042Z,12.70
2023-02-21T21:33:27.461Z,12.30
2023-02-21T21:35:49.027Z,13.10
2023-02-21T21:38:11.765Z,12.73
2023-02-21T21:40:33.365Z,13.67
2023-02-21T21:42:55.934Z,13.93
2023-02-21T21:45:25.354Z,13.70
2023-02-21T21:47:50.046Z,13.87
2023-02-21T21:52:33.548Z,13.97
2023-02-21T21:54:55.334Z,13.73
2023-02-21T21:57:18.921Z,13.73
2023-02-21T21:59:43.328Z,13.55
2023-02-21T22:02:04.973Z,12.50
2023-02-21T22:04:27.387Z,14.77
2023-02-21T22:06:50.136Z,14.17
2023-02-21T22:09:17.146Z,15.43
2023-02-21T22:11:45.399Z,15.60
2023-02-21T22:14:06.986Z,14.80
2023-02-21T22:16:37.270Z,16.33
2023-02-21T22:18:58.861Z,15.47
2023-02-21T22:21:22.271Z,16.07
2023-02-21T22:23:44.175Z,14.33
2023-02-21T22:26:05.903Z,15.50
2023-02-21T22:28:27.478Z,17.07
2023-02-21T22:30:50.296Z,16.70
2023-02-21T22:33:18.546Z,16.17
2023-02-21T22:35:41.376Z,16.30
2023-02-21T22:38:03.076Z,16.70
2023-02-21T22:40:27.869Z,15.33
2023-02-21T22:42:54.757Z,17.77
2023-02-21T22:45:17.120Z,17.03
2023-02-21T22:47:39.239Z,16.37
2023-02-21T22:50:00.823Z,16.60
2023-02-21T22:52:22.405Z,16.40
2023-02-21T22:54:46.624Z,17.43
2023-02-21T22:57:08.236Z,16.55
2023-02-21T22:59:30.417Z,17.47
2023-02-21T23:01:53.286Z,18.13
2023-02-21T23:04:25.685Z,17.90
2023-02-21T23:06:47.714Z,18.20
2023-02-21T23:09:14.341Z,18.93
2023-02-21T23:11:35.908Z,18.40
2023-02-21T23:13:57.497Z,19.87
2023-02-21T23:16:23.757Z,18.43
2023-02-21T23:18:45.840Z,19.53
2023-02-21T23:21:09.771Z,17.23
2023-02-21T23:23:31.329Z,18.67
2023-02-21T23:25:58.722Z,19.03
2023-02-21T23:28:20.532Z,17.70
2023-02-21T23:30:42.738Z,16.40
2023-02-21T23:33:06.294Z,17.30
2023-02-21T23:35:28.054Z,18.52
2023-02-21T23:37:53.181Z,19.10
2023-02-21T23:40:20.566Z,18.70
2023-02-21T23:42:49.512Z,20.07
2023-02-21T23:45:13.900Z,19.93
2023-02-21T23:47:36.328Z,18.95
2023-02-21T23:49:59.380Z,18.93
2023-02-21T23:52:22.703Z,18.43
2023-02-21T23:54:44.341Z,17.60
2023-02-21T23:57:07.588Z,19.10
2023-02-21T23:59:29.220Z,19.43
